sensor_id;sensor_type;location;lat;lon;timestamp;pressure;altitude;pressure_sealevel;temperature;humidity
69879;BME280;57161;43.136;24.706;2024-02-28T00:02:10;99616.22;;;6.81;81.07
69879;BME280;57161;43.136;24.706;2024-02-28T00:04:38;99600.63;;;6.73;81.38
69879;BME280;57161;43.136;24.706;2024-02-28T00:07:03;99620.03;;;6.78;81.39
69879;BME280;57161;43.136;24.706;2024-02-28T00:09:29;99601.63;;;6.70;81.25
69879;BME280;57161;43.136;24.706;2024-02-28T00:11:57;99610.44;;;6.74;81.14
69879;BME280;57161;43.136;24.706;2024-02-28T00:14:23;99621.81;;;6.76;81.42
69879;BME280;57161;43.136;24.706;2024-02-28T00:16:48;99616.00;;;6.74;81.36
69879;BME280;57161;43.136;24.706;2024-02-28T00:19:14;99602.88;;;6.63;81.39
69879;BME280;57161;43.136;24.706;2024-02-28T00:21:40;99616.00;;;6.74;81.23
69879;BME280;57161;43.136;24.706;2024-02-28T00:24:08;99618.03;;;6.73;81.30
69879;BME280;57161;43.136;24.706;2024-02-28T00:26:34;99626.84;;;6.66;81.94
69879;BME280;57161;43.136;24.706;2024-02-28T00:28:59;99600.63;;;6.61;81.56
69879;BME280;57161;43.136;24.706;2024-02-28T00:31:25;99622.53;;;6.82;81.18
69879;BME280;57161;43.136;24.706;2024-02-28T00:33:50;99619.53;;;6.80;81.18
69879;BME280;57161;43.136;24.706;2024-02-28T00:36:16;99615.25;;;6.62;81.63
69879;BME280;57161;43.136;24.706;2024-02-28T00:38:42;99617.00;;;6.65;81.34
69879;BME280;57161;43.136;24.706;2024-02-28T00:41:07;99582.47;;;6.27;80.87
69879;BME280;57161;43.136;24.706;2024-02-28T00:43:33;99626.13;;;6.54;81.24
69879;BME280;57161;43.136;24.706;2024-02-28T00:45:58;99625.38;;;6.48;81.67
69879;BME280;57161;43.136;24.706;2024-02-28T00:48:25;99622.59;;;6.43;81.64
69879;BME280;57161;43.136;24.706;2024-02-28T00:50:50;99631.94;;;6.45;81.39
69879;BME280;57161;43.136;24.706;2024-02-28T00:53:17;99639.25;;;6.43;81.23
69879;BME280;57161;43.136;24.706;2024-02-28T00:55:43;99636.97;;;6.41;81.42
69879;BME280;57161;43.136;24.706;2024-02-28T00:58:11;99635.47;;;6.46;81.47
69879;BME280;57161;43.136;24.706;2024-02-28T01:00:37;99639.25;;;6.37;81.47
69879;BME280;57161;43.136;24.706;2024-02-28T01:03:02;99630.19;;;6.37;81.48
69879;BME280;57161;43.136;24.706;2024-02-28T01:05:34;99597.84;;;6.00;81.80
69879;BME280;57161;43.136;24.706;2024-02-28T01:07:59;99643.78;;;6.23;82.04
69879;BME280;57161;43.136;24.706;2024-02-28T01:10:25;99649.34;;;6.23;82.16
69879;BME280;57161;43.136;24.706;2024-02-28T01:12:50;99642.00;;;6.15;82.10
69879;BME280;57161;43.136;24.706;2024-02-28T01:15:16;99637.97;;;6.16;81.79
69879;BME280;57161;43.136;24.706;2024-02-28T01:17:41;99649.09;;;6.27;81.72
69879;BME280;57161;43.136;24.706;2024-02-28T01:20:07;99639.00;;;6.24;81.89
69879;BME280;57161;43.136;24.706;2024-02-28T01:22:34;99662.19;;;6.26;82.41
69879;BME280;57161;43.136;24.706;2024-02-28T01:24:59;99647.31;;;6.18;82.35
69879;BME280;57161;43.136;24.706;2024-02-28T01:27:24;99654.88;;;6.23;82.46
69879;BME280;57161;43.136;24.706;2024-02-28T01:29:50;99660.69;;;6.20;82.77
69879;BME280;57161;43.136;24.706;2024-02-28T01:32:15;99653.09;;;6.04;82.92
69879;BME280;57161;43.136;24.706;2024-02-28T01:34:41;99680.09;;;6.09;83.54
69879;BME280;57161;43.136;24.706;2024-02-28T01:37:06;99664.44;;;6.11;83.11
69879;BME280;57161;43.136;24.706;2024-02-28T01:39:32;99662.19;;;6.10;83.19
69879;BME280;57161;43.136;24.706;2024-02-28T01:41:57;99671.25;;;6.16;83.18
69879;BME280;57161;43.136;24.706;2024-02-28T01:44:23;99670.25;;;6.08;83.29
69879;BME280;57161;43.136;24.706;2024-02-28T01:46:48;99676.31;;;6.06;83.24
69879;BME280;57161;43.136;24.706;2024-02-28T01:49:14;99711.84;;;6.02;83.54
69879;BME280;57161;43.136;24.706;2024-02-28T01:51:41;99669.94;;;5.89;83.63
69879;BME280;57161;43.136;24.706;2024-02-28T01:54:07;99675.78;;;5.96;83.81
69879;BME280;57161;43.136;24.706;2024-02-28T01:56:33;99682.56;;;6.01;83.64
69879;BME280;57161;43.136;24.706;2024-02-28T01:59:00;99680.31;;;5.94;83.97
69879;BME280;57161;43.136;24.706;2024-02-28T02:01:27;99681.81;;;6.00;83.90
69879;BME280;57161;43.136;24.706;2024-02-28T02:03:53;99669.47;;;5.90;83.30
69879;BME280;57161;43.136;24.706;2024-02-28T02:06:19;99677.53;;;5.94;83.42
69879;BME280;57161;43.136;24.706;2024-02-28T02:08:46;99655.53;;;5.73;83.23
69879;BME280;57161;43.136;24.706;2024-02-28T02:11:14;99681.25;;;5.85;83.12
69879;BME280;57161;43.136;24.706;2024-02-28T02:13:53;99685.28;;;5.84;83.36
69879;BME280;57161;43.136;24.706;2024-02-28T02:16:19;99684.75;;;5.75;83.95
69879;BME280;57161;43.136;24.706;2024-02-28T02:18:47;99679.47;;;5.71;83.75
69879;BME280;57161;43.136;24.706;2024-02-28T02:21:15;99694.84;;;5.78;83.88
69879;BME280;57161;43.136;24.706;2024-02-28T02:23:42;99688.03;;;5.79;83.77
69879;BME280;57161;43.136;24.706;2024-02-28T02:26:08;99688.53;;;5.77;83.81
69879;BME280;57161;43.136;24.706;2024-02-28T02:28:33;99696.09;;;5.77;83.99
69879;BME280;57161;43.136;24.706;2024-02-28T02:30:59;99665.75;;;5.45;84.15
69879;BME280;57161;43.136;24.706;2024-02-28T02:33:24;99673.34;;;5.56;84.51
69879;BME280;57161;43.136;24.706;2024-02-28T02:35:54;99700.09;;;5.64;84.79
69879;BME280;57161;43.136;24.706;2024-02-28T02:38:19;99699.63;;;5.71;84.76
69879;BME280;57161;43.136;24.706;2024-02-28T02:40:49;99700.59;;;5.63;84.46
69879;BME280;57161;43.136;24.706;2024-02-28T02:43:15;99704.63;;;5.62;84.65
69879;BME280;57161;43.136;24.706;2024-02-28T02:45:40;99694.72;;;5.50;84.93
69879;BME280;57161;43.136;24.706;2024-02-28T02:48:06;99697.19;;;5.36;85.45
69879;BME280;57161;43.136;24.706;2024-02-28T02:50:31;99713.78;;;5.31;86.38
69879;BME280;57161;43.136;24.706;2024-02-28T02:52:57;99703.69;;;5.28;86.37
69879;BME280;57161;43.136;24.706;2024-02-28T02:55:22;99715.13;;;5.47;86.11
69879;BME280;57161;43.136;24.706;2024-02-28T02:57:48;99708.81;;;5.40;86.31
69879;BME280;57161;43.136;24.706;2024-02-28T03:00:13;99724.22;;;5.53;85.89
69879;BME280;57161;43.136;24.706;2024-02-28T03:02:39;99726.97;;;5.47;85.89
69879;BME280;57161;43.136;24.706;2024-02-28T03:05:05;99723.19;;;5.50;85.65
69879;BME280;57161;43.136;24.706;2024-02-28T03:07:32;99717.66;;;5.50;85.96
69879;BME280;57161;43.136;24.706;2024-02-28T03:09:58;99730.31;;;5.57;85.79
69879;BME280;57161;43.136;24.706;2024-02-28T03:12:24;99721.94;;;5.51;85.55
69879;BME280;57161;43.136;24.706;2024-02-28T03:14:49;99708.75;;;5.29;85.84
69879;BME280;57161;43.136;24.706;2024-02-28T03:17:15;99723.97;;;5.51;85.69
69879;BME280;57161;43.136;24.706;2024-02-28T03:19:41;99723.47;;;5.52;85.97
69879;BME280;57161;43.136;24.706;2024-02-28T03:22:06;99737.38;;;5.63;85.89
69879;BME280;57161;43.136;24.706;2024-02-28T03:24:32;99734.09;;;5.65;85.69
69879;BME280;57161;43.136;24.706;2024-02-28T03:27:01;99725.97;;;5.50;86.09
69879;BME280;57161;43.136;24.706;2024-02-28T03:29:26;99714.13;;;5.50;86.09
69879;BME280;57161;43.136;24.706;2024-02-28T03:31:52;99726.28;;;5.58;85.97
69879;BME280;57161;43.136;24.706;2024-02-28T03:34:17;99733.34;;;5.64;86.07
69879;BME280;57161;43.136;24.706;2024-02-28T03:36:46;99727.81;;;5.64;85.72
69879;BME280;57161;43.136;24.706;2024-02-28T03:39:11;99733.34;;;5.59;85.88
69879;BME280;57161;43.136;24.706;2024-02-28T03:41:37;99734.59;;;5.63;85.95
69879;BME280;57161;43.136;24.706;2024-02-28T03:44:03;99734.84;;;5.60;86.10
69879;BME280;57161;43.136;24.706;2024-02-28T03:46:29;99711.84;;;5.42;86.24
69879;BME280;57161;43.136;24.706;2024-02-28T03:48:54;99728.47;;;5.42;86.18
69879;BME280;57161;43.136;24.706;2024-02-28T03:51:20;99732.50;;;5.41;85.04
69879;BME280;57161;43.136;24.706;2024-02-28T03:53:45;99740.22;;;5.32;85.07
69879;BME280;57161;43.136;24.706;2024-02-28T03:56:11;99731.63;;;5.24;85.34
69879;BME280;57161;43.136;24.706;2024-02-28T03:58:37;99743.00;;;5.32;85.16
69879;BME280;57161;43.136;24.706;2024-02-28T04:01:02;99742.00;;;5.29;84.45
69879;BME280;57161;43.136;24.706;2024-02-28T04:03:28;99743.22;;;5.23;84.60
69879;BME280;57161;43.136;24.706;2024-02-28T04:05:54;99737.69;;;5.23;84.68
69879;BME280;57161;43.136;24.706;2024-02-28T04:08:19;99733.59;;;5.18;85.54
69879;BME280;57161;43.136;24.706;2024-02-28T04:10:45;99734.34;;;5.19;85.15
69879;BME280;57161;43.136;24.706;2024-02-28T04:13:11;99705.72;;;4.90;85.33
69879;BME280;57161;43.136;24.706;2024-02-28T04:15:36;99744.88;;;5.09;85.82
69879;BME280;57161;43.136;24.706;2024-02-28T04:18:03;99746.91;;;5.08;86.21
69879;BME280;57161;43.136;24.706;2024-02-28T04:20:29;99741.78;;;5.01;86.71
69879;BME280;57161;43.136;24.706;2024-02-28T04:22:54;99746.13;;;5.08;85.88
69879;BME280;57161;43.136;24.706;2024-02-28T04:25:20;99745.88;;;5.06;85.38
69879;BME280;57161;43.136;24.706;2024-02-28T04:27:45;99747.34;;;5.01;85.73
69879;BME280;57161;43.136;24.706;2024-02-28T04:30:12;99749.34;;;5.01;85.95
69879;BME280;57161;43.136;24.706;2024-02-28T04:32:38;99736.19;;;4.90;86.31
69879;BME280;57161;43.136;24.706;2024-02-28T04:35:03;99749.31;;;4.95;86.77
69879;BME280;57161;43.136;24.706;2024-02-28T04:37:29;99734.09;;;4.79;86.92
69879;BME280;57161;43.136;24.706;2024-02-28T04:39:54;99758.06;;;4.88;87.47
69879;BME280;57161;43.136;24.706;2024-02-28T04:42:20;99755.88;;;4.98;87.35
69879;BME280;57161;43.136;24.706;2024-02-28T04:44:45;99754.25;;;4.86;87.39
69879;BME280;57161;43.136;24.706;2024-02-28T04:47:11;99758.00;;;4.82;87.39
69879;BME280;57161;43.136;24.706;2024-02-28T04:49:37;99760.03;;;4.82;87.44
69879;BME280;57161;43.136;24.706;2024-02-28T04:52:05;99756.50;;;4.81;87.67
69879;BME280;57161;43.136;24.706;2024-02-28T04:54:30;99754.31;;;4.91;87.33
69879;BME280;57161;43.136;24.706;2024-02-28T04:56:56;99765.75;;;5.04;87.25
69879;BME280;57161;43.136;24.706;2024-02-28T04:59:21;99753.06;;;4.92;87.16
69879;BME280;57161;43.136;24.706;2024-02-28T05:01:47;99773.75;;;4.97;87.58
69879;BME280;57161;43.136;24.706;2024-02-28T05:04:13;99749.03;;;4.93;87.49
69879;BME280;57161;43.136;24.706;2024-02-28T05:06:39;99772.75;;;5.00;87.25
69879;BME280;57161;43.136;24.706;2024-02-28T05:09:05;99775.47;;;4.94;87.52
69879;BME280;57161;43.136;24.706;2024-02-28T05:11:30;99777.50;;;4.94;87.57
69879;BME280;57161;43.136;24.706;2024-02-28T05:13:56;99772.75;;;5.00;87.47
69879;BME280;57161;43.136;24.706;2024-02-28T05:16:21;99777.13;;;5.12;86.41
69879;BME280;57161;43.136;24.706;2024-02-28T05:18:47;99760.47;;;5.06;86.30
69879;BME280;57161;43.136;24.706;2024-02-28T05:21:15;99780.69;;;5.18;85.80
69879;BME280;57161;43.136;24.706;2024-02-28T05:23:41;99781.50;;;5.24;85.13
69879;BME280;57161;43.136;24.706;2024-02-28T05:26:06;99774.66;;;5.20;85.44
69879;BME280;57161;43.136;24.706;2024-02-28T05:28:35;99780.19;;;5.20;85.11
69879;BME280;57161;43.136;24.706;2024-02-28T05:33:45;99773.94;;;5.25;85.23
69879;BME280;57161;43.136;24.706;2024-02-28T05:36:11;99754.03;;;5.21;85.33
69879;BME280;57161;43.136;24.706;2024-02-28T05:38:36;99753.53;;;5.22;84.82
69879;BME280;57161;43.136;24.706;2024-02-28T05:41:02;99791.53;;;5.53;84.62
69879;BME280;57161;43.136;24.706;2024-02-28T05:43:27;99797.81;;;5.54;84.68
69879;BME280;57161;43.136;24.706;2024-02-28T05:45:53;99801.16;;;5.69;84.64
69879;BME280;57161;43.136;24.706;2024-02-28T05:48:18;99790.19;;;5.86;83.70
69879;BME280;57161;43.136;24.706;2024-02-28T05:50:44;99797.34;;;6.04;82.97
69879;BME280;57161;43.136;24.706;2024-02-28T05:53:09;99780.88;;;5.89;83.36
69879;BME280;57161;43.136;24.706;2024-02-28T05:55:35;99791.75;;;5.98;83.22
69879;BME280;57161;43.136;24.706;2024-02-28T05:58:00;99791.75;;;5.98;83.80
69879;BME280;57161;43.136;24.706;2024-02-28T06:00:27;99806.72;;;6.17;83.15
69879;BME280;57161;43.136;24.706;2024-02-28T06:02:53;99799.69;;;6.22;81.72
69879;BME280;57161;43.136;24.706;2024-02-28T06:05:19;99804.53;;;6.38;80.70
69879;BME280;57161;43.136;24.706;2024-02-28T06:07:44;99811.09;;;6.46;79.87
69879;BME280;57161;43.136;24.706;2024-02-28T06:10:10;99814.91;;;6.60;79.62
69879;BME280;57161;43.136;24.706;2024-02-28T06:12:36;99793.47;;;6.60;79.29
69879;BME280;57161;43.136;24.706;2024-02-28T06:15:01;99817.00;;;6.93;78.85
69879;BME280;57161;43.136;24.706;2024-02-28T06:17:27;99822.31;;;7.02;79.17
69879;BME280;57161;43.136;24.706;2024-02-28T06:19:53;99821.28;;;7.05;79.21
69879;BME280;57161;43.136;24.706;2024-02-28T06:22:18;99809.91;;;7.09;79.23
69879;BME280;57161;43.136;24.706;2024-02-28T06:24:45;99826.09;;;7.33;78.99
69879;BME280;57161;43.136;24.706;2024-02-28T06:27:11;99827.59;;;7.39;78.85
69879;BME280;57161;43.136;24.706;2024-02-28T06:29:39;99828.34;;;7.40;78.11
69879;BME280;57161;43.136;24.706;2024-02-28T06:32:04;99835.69;;;7.43;78.31
69879;BME280;57161;43.136;24.706;2024-02-28T06:34:30;99826.84;;;7.39;78.15
69879;BME280;57161;43.136;24.706;2024-02-28T06:36:56;99830.13;;;7.26;78.55
69879;BME280;57161;43.136;24.706;2024-02-28T06:39:22;99837.97;;;7.28;78.56
69879;BME280;57161;43.136;24.706;2024-02-28T06:41:48;99843.53;;;7.28;78.19
69879;BME280;57161;43.136;24.706;2024-02-28T06:44:18;99823.56;;;7.01;78.83
69879;BME280;57161;43.136;24.706;2024-02-28T06:46:44;99838.47;;;7.15;78.25
69879;BME280;57161;43.136;24.706;2024-02-28T06:49:09;99840.50;;;7.20;77.34
69879;BME280;57161;43.136;24.706;2024-02-28T06:51:34;99829.38;;;7.03;77.47
69879;BME280;57161;43.136;24.706;2024-02-28T06:54:00;99842.50;;;7.03;77.85
69879;BME280;57161;43.136;24.706;2024-02-28T06:56:25;99843.03;;;7.01;78.46
69879;BME280;57161;43.136;24.706;2024-02-28T06:58:51;99842.53;;;7.19;77.66
69879;BME280;57161;43.136;24.706;2024-02-28T07:01:17;99850.59;;;7.29;77.60
69879;BME280;57161;43.136;24.706;2024-02-28T07:03:43;99851.34;;;7.40;77.48
69879;BME280;57161;43.136;24.706;2024-02-28T07:06:08;99851.59;;;7.48;77.00
69879;BME280;57161;43.136;24.706;2024-02-28T07:08:33;99855.13;;;7.65;77.25
69879;BME280;57161;43.136;24.706;2024-02-28T07:10:59;99860.91;;;7.84;77.06
69879;BME280;57161;43.136;24.706;2024-02-28T07:13:24;99854.03;;;8.02;76.42
69879;BME280;57161;43.136;24.706;2024-02-28T07:15:50;99860.06;;;8.17;76.04
69879;BME280;57161;43.136;24.706;2024-02-28T07:18:16;99852.91;;;8.27;75.97
69879;BME280;57161;43.136;24.706;2024-02-28T07:20:41;99850.09;;;8.44;75.11
69879;BME280;57161;43.136;24.706;2024-02-28T07:23:07;99856.09;;;8.59;74.02
69879;BME280;57161;43.136;24.706;2024-02-28T07:25:32;99867.47;;;8.67;74.33
69879;BME280;57161;43.136;24.706;2024-02-28T07:27:58;99829.38;;;8.39;74.61
69879;BME280;57161;43.136;24.706;2024-02-28T07:30:28;99868.91;;;8.79;73.69
69879;BME280;57161;43.136;24.706;2024-02-28T07:32:53;99864.34;;;8.76;73.73
69879;BME280;57161;43.136;24.706;2024-02-28T07:35:19;99860.09;;;8.69;74.32
69879;BME280;57161;43.136;24.706;2024-02-28T07:37:46;99866.13;;;8.79;74.01
69879;BME280;57161;43.136;24.706;2024-02-28T07:40:12;99867.78;;;8.93;73.85
69879;BME280;57161;43.136;24.706;2024-02-28T07:42:37;99849.56;;;8.92;73.48
69879;BME280;57161;43.136;24.706;2024-02-28T07:45:03;99858.09;;;9.06;73.42
69879;BME280;57161;43.136;24.706;2024-02-28T07:47:29;99836.06;;;9.02;73.26
69879;BME280;57161;43.136;24.706;2024-02-28T07:49:54;99860.00;;;9.22;72.92
69879;BME280;57161;43.136;24.706;2024-02-28T07:52:20;99853.34;;;9.30;72.67
69879;BME280;57161;43.136;24.706;2024-02-28T07:54:45;99865.66;;;9.71;71.58
69879;BME280;57161;43.136;24.706;2024-02-28T07:57:11;99851.69;;;9.76;71.38
69879;BME280;57161;43.136;24.706;2024-02-28T07:59:44;99841.88;;;9.88;71.25
69879;BME280;57161;43.136;24.706;2024-02-28T08:02:09;99854.38;;;10.06;71.82
69879;BME280;57161;43.136;24.706;2024-02-28T08:04:38;99852.81;;;10.11;72.12
69879;BME280;57161;43.136;24.706;2024-02-28T08:07:04;99856.44;;;10.30;71.50
69879;BME280;57161;43.136;24.706;2024-02-28T08:09:29;99850.78;;;10.55;70.15
69879;BME280;57161;43.136;24.706;2024-02-28T08:11:55;99838.84;;;10.54;70.56
69879;BME280;57161;43.136;24.706;2024-02-28T08:14:23;99838.03;;;10.59;71.30
69879;BME280;57161;43.136;24.706;2024-02-28T08:16:48;99831.91;;;10.79;70.56
69879;BME280;57161;43.136;24.706;2024-02-28T08:19:14;99840.44;;;11.19;69.42
69879;BME280;57161;43.136;24.706;2024-02-28T08:21:39;99834.47;;;11.41;69.01
69879;BME280;57161;43.136;24.706;2024-02-28T08:24:05;99821.13;;;11.48;68.22
69879;BME280;57161;43.136;24.706;2024-02-28T08:26:31;99825.06;;;11.84;67.39
69879;BME280;57161;43.136;24.706;2024-02-28T08:28:56;99826.59;;;12.12;66.74
69879;BME280;57161;43.136;24.706;2024-02-28T08:31:22;99826.22;;;12.42;66.02
69879;BME280;57161;43.136;24.706;2024-02-28T08:33:47;99820.06;;;12.56;65.08
69879;BME280;57161;43.136;24.706;2024-02-28T08:36:13;99824.94;;;12.29;65.75
69879;BME280;57161;43.136;24.706;2024-02-28T08:38:40;99842.97;;;12.68;65.41
69879;BME280;57161;43.136;24.706;2024-02-28T08:41:06;99809.72;;;12.85;64.96
69879;BME280;57161;43.136;24.706;2024-02-28T08:43:37;99834.34;;;13.34;63.57
69879;BME280;57161;43.136;24.706;2024-02-28T08:46:03;99829.44;;;13.14;64.07
69879;BME280;57161;43.136;24.706;2024-02-28T08:48:29;99835.00;;;13.27;63.91
69879;BME280;57161;43.136;24.706;2024-02-28T08:50:54;99830.34;;;13.50;63.62
69879;BME280;57161;43.136;24.706;2024-02-28T08:53:20;99833.41;;;13.60;63.22
69879;BME280;57161;43.136;24.706;2024-02-28T08:55:45;99819.31;;;13.32;63.91
69879;BME280;57161;43.136;24.706;2024-02-28T08:58:11;99832.00;;;13.25;64.92
69879;BME280;57161;43.136;24.706;2024-02-28T09:00:36;99826.47;;;12.99;65.59
69879;BME280;57161;43.136;24.706;2024-02-28T09:03:01;99825.16;;;13.00;66.09
69879;BME280;57161;43.136;24.706;2024-02-28T09:05:29;99828.47;;;12.90;66.68
69879;BME280;57161;43.136;24.706;2024-02-28T09:07:54;99838.66;;;13.01;66.63
69879;BME280;57161;43.136;24.706;2024-02-28T09:10:20;99820.31;;;13.00;66.54
69879;BME280;57161;43.136;24.706;2024-02-28T09:12:49;99822.31;;;12.92;66.77
69879;BME280;57161;43.136;24.706;2024-02-28T09:15:15;99816.41;;;12.82;67.02
69879;BME280;57161;43.136;24.706;2024-02-28T09:17:40;99827.06;;;12.84;67.10
69879;BME280;57161;43.136;24.706;2024-02-28T09:20:06;99829.34;;;12.85;67.39
69879;BME280;57161;43.136;24.706;2024-02-28T09:22:33;99824.69;;;12.88;67.19
69879;BME280;57161;43.136;24.706;2024-02-28T09:25:00;99822.59;;;13.02;67.06
69879;BME280;57161;43.136;24.706;2024-02-28T09:27:29;99820.25;;;13.13;66.45
69879;BME280;57161;43.136;24.706;2024-02-28T09:29:54;99818.91;;;13.07;66.81
69879;BME280;57161;43.136;24.706;2024-02-28T09:32:20;99833.00;;;13.14;66.41
69879;BME280;57161;43.136;24.706;2024-02-28T09:34:45;99826.94;;;13.24;66.17
69879;BME280;57161;43.136;24.706;2024-02-28T09:37:11;99814.41;;;13.25;65.52
69879;BME280;57161;43.136;24.706;2024-02-28T09:39:40;99822.41;;;13.41;65.08
69879;BME280;57161;43.136;24.706;2024-02-28T09:42:07;99813.84;;;13.47;64.73
69879;BME280;57161;43.136;24.706;2024-02-28T09:44:34;99818.16;;;13.48;64.63
69879;BME280;57161;43.136;24.706;2024-02-28T09:47:00;99798.94;;;13.52;64.07
69879;BME280;57161;43.136;24.706;2024-02-28T09:49:26;99816.38;;;13.58;63.99
69879;BME280;57161;43.136;24.706;2024-02-28T09:51:52;99808.28;;;13.55;64.11
69879;BME280;57161;43.136;24.706;2024-02-28T09:54:18;99818.41;;;13.58;64.28
69879;BME280;57161;43.136;24.706;2024-02-28T09:56:44;99793.16;;;13.58;64.25
69879;BME280;57161;43.136;24.706;2024-02-28T09:59:10;99805.03;;;13.71;64.25
69879;BME280;57161;43.136;24.706;2024-02-28T10:01:42;99800.00;;;13.77;63.65
69879;BME280;57161;43.136;24.706;2024-02-28T10:04:10;99798.72;;;13.78;63.96
69879;BME280;57161;43.136;24.706;2024-02-28T10:06:40;99803.28;;;13.89;63.58
69879;BME280;57161;43.136;24.706;2024-02-28T10:09:06;99799.47;;;13.79;63.98
69879;BME280;57161;43.136;24.706;2024-02-28T10:11:32;99792.88;;;13.69;63.91
69879;BME280;57161;43.136;24.706;2024-02-28T10:13:58;99804.72;;;13.82;64.42
69879;BME280;57161;43.136;24.706;2024-02-28T10:16:24;99806.09;;;13.89;64.37
69879;BME280;57161;43.136;24.706;2024-02-28T10:18:50;99789.81;;;13.95;64.03
69879;BME280;57161;43.136;24.706;2024-02-28T10:21:15;99796.63;;;14.07;63.69
69879;BME280;57161;43.136;24.706;2024-02-28T10:23:41;99790.16;;;14.20;63.07
69879;BME280;57161;43.136;24.706;2024-02-28T10:26:10;99784.66;;;14.15;62.67
69879;BME280;57161;43.136;24.706;2024-02-28T10:28:40;99793.91;;;14.23;62.63
69879;BME280;57161;43.136;24.706;2024-02-28T10:31:09;99788.84;;;14.29;61.50
69879;BME280;57161;43.136;24.706;2024-02-28T10:33:36;99785.47;;;14.30;61.38
69879;BME280;57161;43.136;24.706;2024-02-28T10:36:05;99781.38;;;14.31;60.89
69879;BME280;57161;43.136;24.706;2024-02-28T10:38:31;99775.78;;;14.39;60.87
69879;BME280;57161;43.136;24.706;2024-02-28T10:41:01;99773.72;;;14.39;61.40
69879;BME280;57161;43.136;24.706;2024-02-28T10:43:31;99753.47;;;14.33;61.36
69879;BME280;57161;43.136;24.706;2024-02-28T10:46:00;99765.94;;;14.53;61.26
69879;BME280;57161;43.136;24.706;2024-02-28T10:48:26;99753.75;;;14.51;61.33
69879;BME280;57161;43.136;24.706;2024-02-28T10:50:53;99762.38;;;14.60;61.72
69879;BME280;57161;43.136;24.706;2024-02-28T10:53:42;99760.72;;;14.80;61.07
69879;BME280;57161;43.136;24.706;2024-02-28T10:56:09;99751.75;;;14.89;60.60
69879;BME280;57161;43.136;24.706;2024-02-28T10:58:37;99756.44;;;14.94;60.75
69879;BME280;57161;43.136;24.706;2024-02-28T11:01:05;99750.06;;;15.01;61.05
69879;BME280;57161;43.136;24.706;2024-02-28T11:03:31;99745.94;;;15.02;60.99
69879;BME280;57161;43.136;24.706;2024-02-28T11:05:57;99737.13;;;15.06;60.46
69879;BME280;57161;43.136;24.706;2024-02-28T11:08:23;99740.31;;;15.10;60.56
69879;BME280;57161;43.136;24.706;2024-02-28T11:11:02;99730.94;;;15.15;60.28
69879;BME280;57161;43.136;24.706;2024-02-28T11:13:33;99724.16;;;15.26;60.28
69879;BME280;57161;43.136;24.706;2024-02-28T11:16:09;99721.53;;;15.36;60.02
69879;BME280;57161;43.136;24.706;2024-02-28T11:18:35;99719.66;;;15.38;59.86
69879;BME280;57161;43.136;24.706;2024-02-28T11:21:01;99717.94;;;15.43;59.71
69879;BME280;57161;43.136;24.706;2024-02-28T11:23:35;99718.13;;;15.45;59.33
69879;BME280;57161;43.136;24.706;2024-02-28T11:26:03;99703.88;;;15.43;59.14
69879;BME280;57161;43.136;24.706;2024-02-28T11:28:29;99700.13;;;15.40;59.05
69879;BME280;57161;43.136;24.706;2024-02-28T11:30:54;99698.41;;;15.45;59.30
69879;BME280;57161;43.136;24.706;2024-02-28T11:33:20;99686.59;;;15.39;58.71
69879;BME280;57161;43.136;24.706;2024-02-28T11:35:54;99703.28;;;15.52;58.85
69879;BME280;57161;43.136;24.706;2024-02-28T11:38:20;99699.56;;;15.49;58.63
69879;BME280;57161;43.136;24.706;2024-02-28T11:40:50;99697.44;;;15.57;58.57
69879;BME280;57161;43.136;24.706;2024-02-28T11:43:15;99666.69;;;15.44;58.48
69879;BME280;57161;43.136;24.706;2024-02-28T11:45:41;99696.53;;;15.63;58.18
69879;BME280;57161;43.136;24.706;2024-02-28T11:48:09;99694.63;;;15.57;58.41
69879;BME280;57161;43.136;24.706;2024-02-28T11:50:37;99701.97;;;15.60;58.28
69879;BME280;57161;43.136;24.706;2024-02-28T11:53:03;99686.75;;;15.71;57.60
69879;BME280;57161;43.136;24.706;2024-02-28T11:55:30;99681.50;;;15.68;57.37
69879;BME280;57161;43.136;24.706;2024-02-28T11:57:55;99696.47;;;15.78;57.19
69879;BME280;57161;43.136;24.706;2024-02-28T12:00:21;99695.19;;;15.79;57.25
69879;BME280;57161;43.136;24.706;2024-02-28T12:02:47;99694.09;;;15.67;57.48
69879;BME280;57161;43.136;24.706;2024-02-28T12:05:12;99692.72;;;15.75;57.32
69879;BME280;57161;43.136;24.706;2024-02-28T12:07:38;99688.41;;;15.82;56.86
69879;BME280;57161;43.136;24.706;2024-02-28T12:10:04;99685.41;;;15.80;56.68
69879;BME280;57161;43.136;24.706;2024-02-28T12:12:30;99685.13;;;16.01;56.42
69879;BME280;57161;43.136;24.706;2024-02-28T12:15:00;99684.72;;;16.04;56.33
69879;BME280;57161;43.136;24.706;2024-02-28T12:17:26;99689.03;;;16.05;56.29
69879;BME280;57161;43.136;24.706;2024-02-28T12:19:52;99686.94;;;16.13;56.11
69879;BME280;57161;43.136;24.706;2024-02-28T12:22:18;99689.97;;;16.08;56.08
69879;BME280;57161;43.136;24.706;2024-02-28T12:24:43;99663.16;;;15.99;55.96
69879;BME280;57161;43.136;24.706;2024-02-28T12:27:10;99684.66;;;16.19;55.63
69879;BME280;57161;43.136;24.706;2024-02-28T12:29:35;99679.09;;;16.04;55.45
69879;BME280;57161;43.136;24.706;2024-02-28T12:32:01;99672.31;;;16.07;55.63
69879;BME280;57161;43.136;24.706;2024-02-28T12:34:27;99675.69;;;16.13;55.66
69879;BME280;57161;43.136;24.706;2024-02-28T12:36:52;99665.72;;;16.12;56.16
69879;BME280;57161;43.136;24.706;2024-02-28T12:39:19;99678.03;;;16.25;55.52
69879;BME280;57161;43.136;24.706;2024-02-28T12:41:44;99684.22;;;16.31;55.33
69879;BME280;57161;43.136;24.706;2024-02-28T12:44:10;99673.47;;;16.37;55.07
69879;BME280;57161;43.136;24.706;2024-02-28T12:46:36;99683.22;;;16.43;54.92
69879;BME280;57161;43.136;24.706;2024-02-28T12:49:03;99673.78;;;16.48;54.75
69879;BME280;57161;43.136;24.706;2024-02-28T12:51:42;99673.19;;;16.50;54.68
69879;BME280;57161;43.136;24.706;2024-02-28T12:54:09;99678.25;;;16.51;54.56